createdAt,value
2018-05-12T00:01:50.486Z,23.55
2018-05-12T00:04:16.467Z,23.54
2018-05-12T00:06:42.490Z,23.53
2018-05-12T00:09:08.439Z,23.53
2018-05-12T00:11:34.448Z,23.54
2018-05-12T00:14:00.538Z,23.53
2018-05-12T00:16:26.510Z,23.54
2018-05-12T00:18:52.500Z,23.53
2018-05-12T00:21:18.485Z,23.52
2018-05-12T00:23:44.503Z,23.53
2018-05-12T00:26:10.487Z,23.53
2018-05-12T00:28:36.432Z,23.52
2018-05-12T00:31:02.407Z,23.52
2018-05-12T00:33:28.390Z,23.51
2018-05-12T00:35:54.403Z,23.51
2018-05-12T00:38:20.352Z,23.50
2018-05-12T00:40:46.335Z,23.51
2018-05-12T00:43:12.318Z,23.50
2018-05-12T00:45:38.302Z,23.50
2018-05-12T00:48:04.281Z,23.50
2018-05-12T00:50:30.277Z,23.50
2018-05-12T00:52:56.256Z,23.50
2018-05-12T00:55:22.238Z,23.50
2018-05-12T00:57:48.280Z,23.50
2018-05-12T01:00:14.230Z,23.50
2018-05-12T01:02:40.201Z,23.49
2018-05-12T01:05:06.185Z,23.49
2018-05-12T01:07:32.182Z,23.49
2018-05-12T01:09:58.188Z,23.48
2018-05-12T01:12:24.188Z,23.48
2018-05-12T01:14:50.197Z,23.48
2018-05-12T01:17:16.170Z,23.48
2018-05-12T01:19:42.129Z,23.48
2018-05-12T01:22:08.148Z,23.47
2018-05-12T01:24:34.136Z,23.48
2018-05-12T01:27:00.123Z,23.47
2018-05-12T01:29:26.101Z,23.46
2018-05-12T01:31:52.091Z,23.46
2018-05-12T01:34:18.067Z,23.46
2018-05-12T01:36:44.086Z,23.47
2018-05-12T01:39:10.073Z,23.46
2018-05-12T01:41:36.056Z,23.45
2018-05-12T01:44:02.018Z,23.45
2018-05-12T01:46:28.019Z,23.45
2018-05-12T01:48:53.996Z,23.45
2018-05-12T01:51:20.009Z,23.45
2018-05-12T01:53:45.949Z,23.45
2018-05-12T01:56:11.928Z,23.44
2018-05-12T01:58:37.913Z,23.44
2018-05-12T02:01:03.890Z,23.44
2018-05-12T02:03:29.906Z,23.44
2018-05-12T02:05:55.883Z,23.43
2018-05-12T02:08:21.892Z,23.43
2018-05-12T02:10:47.864Z,23.42
2018-05-12T02:13:13.850Z,23.42
2018-05-12T02:15:39.796Z,23.43
2018-05-12T02:18:05.781Z,23.43
2018-05-12T02:20:31.758Z,23.42
2018-05-12T02:22:57.739Z,23.42
2018-05-12T02:25:23.734Z,23.42
2018-05-12T02:27:49.748Z,23.41
2018-05-12T02:30:15.761Z,23.41
2018-05-12T02:32:41.734Z,23.40
2018-05-12T02:35:07.692Z,23.40
2018-05-12T02:37:33.683Z,23.40
2018-05-12T02:39:59.699Z,23.40
2018-05-12T02:42:25.687Z,23.40
2018-05-12T02:44:51.656Z,23.39
2018-05-12T02:47:17.667Z,23.40
2018-05-12T02:49:43.619Z,23.39
2018-05-12T02:52:09.640Z,23.39
2018-05-12T02:54:35.590Z,23.39
2018-05-12T02:57:01.572Z,23.39
2018-05-12T02:59:27.573Z,23.39
2018-05-12T03:01:53.584Z,23.38
2018-05-12T03:04:19.573Z,23.38
2018-05-12T03:06:45.558Z,23.38
2018-05-12T03:09:11.648Z,23.38
2018-05-12T03:11:37.610Z,23.38
2018-05-12T03:14:03.622Z,23.38
2018-05-12T03:16:29.580Z,23.38
2018-05-12T03:18:55.583Z,23.37
2018-05-12T03:21:21.589Z,23.37
2018-05-12T03:23:47.571Z,23.37
2018-05-12T03:26:13.526Z,23.37
2018-05-12T03:28:39.499Z,23.36
2018-05-12T03:31:05.494Z,23.36
2018-05-12T03:33:31.484Z,23.36
2018-05-12T03:35:57.478Z,23.36
2018-05-12T03:38:23.459Z,23.36
2018-05-12T03:40:49.472Z,23.36
2018-05-12T03:43:15.422Z,23.36
2018-05-12T03:45:41.429Z,23.36
2018-05-12T03:48:07.390Z,23.36
2018-05-12T03:50:33.381Z,23.35
2018-05-12T03:52:59.389Z,23.34
2018-05-12T03:55:25.339Z,23.35
2018-05-12T03:57:51.387Z,23.35
2018-05-12T04:00:17.378Z,23.34
2018-05-12T04:02:43.400Z,23.34
2018-05-12T04:05:09.339Z,23.35
2018-05-12T04:07:35.321Z,23.34
2018-05-12T04:10:01.304Z,23.33
2018-05-12T04:12:27.295Z,23.34
2018-05-12T04:14:53.277Z,23.33
2018-05-12T04:17:19.292Z,23.33
2018-05-12T04:19:45.243Z,23.33
2018-05-12T04:22:11.224Z,23.33
2018-05-12T04:24:37.204Z,23.33
2018-05-12T04:27:03.178Z,23.33
2018-05-12T04:29:29.164Z,23.32
2018-05-12T04:31:55.176Z,23.32
2018-05-12T04:34:21.164Z,23.31
2018-05-12T04:36:47.112Z,23.32
2018-05-12T04:39:13.116Z,23.32
2018-05-12T04:41:39.091Z,23.32
2018-05-12T04:44:05.070Z,23.32
2018-05-12T04:46:31.115Z,23.31
2018-05-12T04:48:57.103Z,23.31
2018-05-12T04:51:23.079Z,23.31
2018-05-12T04:53:49.098Z,23.31
2018-05-12T04:56:15.088Z,23.31
2018-05-12T04:58:41.132Z,23.31
2018-05-12T05:01:07.126Z,23.31
2018-05-12T05:03:33.083Z,23.30
2018-05-12T05:05:59.068Z,23.31
2018-05-12T05:08:25.054Z,23.31
2018-05-12T05:10:51.068Z,23.30
2018-05-12T05:13:17.061Z,23.30
2018-05-12T05:15:43.030Z,23.30
2018-05-12T05:18:09.011Z,23.29
2018-05-12T05:20:34.993Z,23.29
2018-05-12T05:23:00.975Z,23.29
2018-05-12T05:25:26.967Z,23.29
2018-05-12T05:27:52.976Z,23.29
2018-05-12T05:30:18.934Z,23.29
2018-05-12T05:32:44.947Z,23.29
2018-05-12T05:35:10.929Z,23.28
2018-05-12T05:37:36.890Z,23.28
2018-05-12T05:40:02.901Z,23.29
2018-05-12T05:42:28.879Z,23.28
2018-05-12T05:44:54.894Z,23.28
2018-05-12T05:47:20.954Z,23.28
2018-05-12T05:49:46.852Z,23.29
2018-05-12T05:52:12.860Z,23.28
2018-05-12T05:54:38.815Z,23.27
2018-05-12T05:57:04.825Z,23.28
2018-05-12T05:59:30.849Z,23.28
2018-05-12T06:01:56.828Z,23.27
2018-05-12T06:04:22.875Z,23.28
2018-05-12T06:06:48.937Z,23.28
2018-05-12T06:09:14.913Z,23.28
2018-05-12T06:11:41.165Z,23.29
2018-05-12T06:14:07.130Z,23.28
2018-05-12T06:16:33.728Z,23.29
2018-05-12T06:19:00.124Z,23.29
2018-05-12T06:21:26.156Z,23.28
2018-05-12T06:23:52.219Z,23.27
2018-05-12T06:26:18.208Z,23.27
2018-05-12T06:28:44.227Z,23.29
2018-05-12T06:31:10.403Z,23.28
2018-05-12T06:33:36.398Z,23.28
2018-05-12T06:36:02.370Z,23.29
2018-05-12T06:38:28.344Z,23.30
2018-05-12T06:40:54.350Z,23.30
2018-05-12T06:43:20.327Z,23.29
2018-05-12T06:45:46.369Z,23.30
2018-05-12T06:48:12.359Z,23.29
2018-05-12T06:50:38.837Z,23.31
2018-05-12T06:53:04.872Z,23.30
2018-05-12T06:55:30.846Z,23.31
2018-05-12T06:57:56.863Z,23.30
2018-05-12T07:00:22.856Z,23.32
2018-05-12T07:02:48.860Z,23.37
2018-05-12T07:05:14.866Z,23.40
2018-05-12T07:07:40.887Z,23.40
2018-05-12T07:10:06.841Z,23.41
2018-05-12T07:12:32.833Z,23.43
2018-05-12T07:14:58.822Z,23.51
2018-05-12T07:17:24.840Z,23.49
2018-05-12T07:19:50.837Z,23.45
2018-05-12T07:22:16.821Z,23.42
2018-05-12T07:24:42.812Z,23.40
2018-05-12T07:27:08.835Z,23.39
2018-05-12T07:29:34.806Z,23.39
2018-05-12T07:32:00.802Z,23.40
2018-05-12T07:34:26.751Z,23.39
2018-05-12T07:36:52.736Z,23.39
2018-05-12T07:39:19.285Z,23.41
2018-05-12T07:41:45.273Z,23.40
2018-05-12T07:44:11.291Z,23.39
2018-05-12T07:46:37.271Z,23.39
2018-05-12T07:49:03.255Z,23.39
2018-05-12T07:51:29.363Z,23.39
2018-05-12T07:53:55.407Z,23.39
2018-05-12T07:56:21.400Z,23.38
2018-05-12T07:58:47.554Z,23.38
2018-05-12T08:03:57.307Z,23.38
2018-05-12T08:06:23.298Z,23.37
2018-05-12T08:08:49.283Z,23.38
2018-05-12T08:11:15.277Z,23.37
2018-05-12T08:13:41.263Z,23.37
2018-05-12T08:16:07.281Z,23.37
2018-05-12T08:18:33.218Z,23.39
2018-05-12T08:20:59.409Z,23.39
2018-05-12T08:23:25.585Z,23.39
2018-05-12T08:25:51.568Z,23.39
2018-05-12T08:28:17.818Z,23.39
2018-05-12T08:30:43.826Z,23.39
2018-05-12T08:33:09.806Z,23.38
2018-05-12T08:35:35.902Z,23.39
2018-05-12T08:38:01.906Z,23.38
2018-05-12T08:40:28.012Z,23.39
2018-05-12T08:42:53.870Z,23.38
2018-05-12T08:45:19.857Z,23.38
2018-05-12T08:47:45.864Z,23.39
2018-05-12T08:50:11.823Z,23.39
2018-05-12T08:52:37.807Z,23.40
2018-05-12T08:55:03.786Z,23.44
2018-05-12T08:57:29.809Z,23.44
2018-05-12T08:59:55.807Z,23.43
2018-05-12T09:02:21.785Z,23.43
2018-05-12T09:04:47.779Z,23.45
2018-05-12T09:07:13.860Z,23.46
2018-05-12T09:09:39.789Z,23.46
2018-05-12T09:12:05.769Z,23.46
2018-05-12T09:14:31.802Z,23.46
2018-05-12T09:16:57.828Z,23.47
2018-05-12T09:19:24.175Z,23.49
2018-05-12T09:21:50.513Z,23.50
2018-05-12T09:24:16.500Z,23.51
2018-05-12T09:26:42.599Z,23.52
2018-05-12T09:29:08.622Z,23.54
2018-05-12T09:31:34.594Z,23.56
2018-05-12T09:34:00.583Z,23.58
2018-05-12T09:36:26.568Z,23.58
2018-05-12T09:38:52.588Z,23.60
2018-05-12T09:41:18.532Z,23.62
2018-05-12T09:43:44.560Z,23.62
2018-05-12T09:46:10.573Z,23.62
2018-05-12T09:48:37.065Z,23.63
2018-05-12T09:51:03.015Z,23.64
2018-05-12T09:53:28.993Z,23.64
2018-05-12T09:55:54.978Z,23.64
2018-05-12T09:58:21.010Z,23.64
2018-05-12T10:00:46.999Z,23.65
2018-05-12T10:03:12.988Z,23.65
2018-05-12T10:05:38.964Z,23.68
2018-05-12T10:08:05.014Z,23.68
2018-05-12T10:10:31.000Z,23.69
2018-05-12T10:12:56.968Z,23.71
2018-05-12T10:15:22.938Z,23.71
2018-05-12T10:17:48.947Z,23.72
2018-05-12T10:20:14.976Z,23.74
2018-05-12T10:22:40.981Z,23.72
2018-05-12T10:25:07.006Z,23.75
2018-05-12T10:27:32.991Z,23.76
2018-05-12T10:29:58.998Z,23.77
2018-05-12T10:32:24.957Z,23.77
2018-05-12T10:34:50.983Z,23.76
2018-05-12T10:37:16.943Z,23.79
2018-05-12T10:39:42.982Z,23.78
2018-05-12T10:42:08.996Z,23.81
2018-05-12T10:44:34.981Z,23.81
2018-05-12T10:47:01.153Z,23.82
2018-05-12T10:49:27.144Z,23.81
2018-05-12T10:51:53.100Z,23.80
2018-05-12T10:54:19.116Z,23.80
2018-05-12T10:56:45.103Z,23.81
2018-05-12T10:59:11.131Z,23.81
2018-05-12T11:01:37.119Z,23.82
2018-05-12T11:04:03.154Z,23.81
2018-05-12T11:06:29.116Z,23.82
2018-05-12T11:08:55.110Z,23.84
2018-05-12T11:11:21.095Z,23.84
2018-05-12T11:13:47.080Z,23.84
2018-05-12T11:16:13.196Z,23.84
2018-05-12T11:18:39.088Z,23.83
2018-05-12T11:21:05.044Z,23.84
2018-05-12T11:23:31.067Z,23.83
2018-05-12T11:25:57.058Z,23.85
2018-05-12T11:28:23.048Z,23.85
2018-05-12T11:30:49.042Z,23.85
2018-05-12T11:33:17.285Z,23.84
2018-05-12T11:35:43.299Z,23.84
2018-05-12T11:38:09.264Z,23.84
2018-05-12T11:40:35.296Z,23.82
2018-05-12T11:43:01.264Z,23.82
2018-05-12T11:45:27.288Z,23.82
2018-05-12T11:47:53.359Z,23.81
2018-05-12T11:50:19.364Z,23.81
2018-05-12T11:52:45.312Z,23.78
2018-05-12T11:55:11.304Z,23.79
2018-05-12T11:57:37.297Z,23.79
2018-05-12T12:00:04.202Z,23.78
2018-05-12T12:02:30.259Z,23.78
2018-05-12T12:04:56.155Z,23.79
2018-05-12T12:07:22.138Z,23.79
2018-05-12T12:09:48.121Z,23.78
2018-05-12T12:12:14.139Z,23.79
2018-05-12T12:14:40.098Z,23.79
2018-05-12T12:17:06.082Z,23.78
2018-05-12T12:19:32.064Z,23.79
2018-05-12T12:21:58.081Z,23.77
2018-05-12T12:24:24.094Z,23.81
2018-05-12T12:26:50.044Z,23.81
2018-05-12T12:29:16.033Z,23.83
2018-05-12T12:31:42.016Z,23.83
2018-05-12T12:34:08.080Z,23.83
2018-05-12T12:36:34.131Z,23.83
2018-05-12T12:39:00.158Z,23.84
2018-05-12T12:41:26.148Z,23.84
2018-05-12T12:43:52.154Z,23.85
2018-05-12T12:46:18.117Z,23.85
2018-05-12T12:48:44.085Z,23.86
2018-05-12T12:51:10.097Z,23.84
2018-05-12T12:53:36.327Z,23.87
2018-05-12T12:56:02.364Z,23.87
2018-05-12T12:58:28.418Z,23.87
2018-05-12T13:00:54.311Z,23.86
2018-05-12T13:03:20.355Z,23.87
2018-05-12T13:05:46.351Z,23.87
2018-05-12T13:08:12.367Z,23.87
2018-05-12T13:10:38.433Z,23.87
2018-05-12T13:13:04.445Z,23.87
2018-05-12T13:15:30.477Z,23.88
2018-05-12T13:17:56.470Z,23.89
2018-05-12T13:20:22.412Z,23.88
2018-05-12T13:22:48.422Z,23.89
2018-05-12T13:25:14.490Z,23.89
2018-05-12T13:27:40.473Z,23.90
2018-05-12T13:30:06.471Z,23.90
2018-05-12T13:32:32.447Z,23.91
2018-05-12T13:34:58.469Z,23.91
2018-05-12T13:37:24.443Z,23.92
2018-05-12T13:39:50.418Z,23.92
2018-05-12T13:42:16.403Z,23.93
2018-05-12T13:44:42.403Z,23.91
2018-05-12T13:47:08.407Z,23.89
2018-05-12T13:49:34.389Z,23.91
2018-05-12T13:52:00.401Z,23.92
2018-05-12T13:54:26.393Z,23.93
2018-05-12T13:56:52.368Z,23.93
2018-05-12T13:59:18.344Z,23.94
2018-05-12T14:01:44.328Z,23.95
2018-05-12T14:04:10.347Z,23.94
2018-05-12T14:06:36.319Z,23.95
2018-05-12T14:09:02.380Z,23.96
2018-05-12T14:11:28.342Z,23.96
2018-05-12T14:13:54.331Z,23.97
2018-05-12T14:16:20.361Z,23.96
2018-05-12T14:18:46.374Z,23.95
2018-05-12T14:21:12.328Z,23.97
2018-05-12T14:23:38.392Z,23.98
2018-05-12T14:26:04.323Z,23.97
2018-05-12T14:28:30.304Z,23.99
2018-05-12T14:30:56.318Z,23.98
2018-05-12T14:33:22.299Z,23.98
2018-05-12T14:35:48.354Z,23.98
2018-05-12T14:38:14.288Z,23.99
2018-05-12T14:40:40.306Z,23.99
2018-05-12T14:43:06.321Z,23.99
2018-05-12T14:45:32.275Z,24.00
2018-05-12T14:47:58.318Z,23.97
2018-05-12T14:50:24.270Z,23.94
2018-05-12T14:52:50.247Z,23.92
2018-05-12T14:55:16.246Z,23.90
2018-05-12T14:57:42.275Z,23.89
2018-05-12T15:00:08.224Z,23.89
2018-05-12T15:02:34.255Z,23.86
2018-05-12T15:05:00.241Z,23.88
2018-05-12T15:07:26.384Z,23.90
2018-05-12T15:09:52.460Z,23.91
2018-05-12T15:12:18.468Z,23.92
2018-05-12T15:14:44.617Z,23.92
2018-05-12T15:17:10.530Z,23.92
2018-05-12T15:19:36.665Z,23.91
2018-05-12T15:22:03.112Z,23.91
2018-05-12T15:24:29.624Z,23.91
2018-05-12T15:26:55.657Z,23.91
2018-05-12T15:29:21.627Z,23.92
2018-05-12T15:31:47.608Z,23.92
2018-05-12T15:34:14.362Z,23.92
2018-05-12T15:36:40.312Z,23.91
2018-05-12T15:39:06.304Z,23.92
2018-05-12T15:41:32.495Z,23.91
2018-05-12T15:43:58.518Z,23.92
2018-05-12T15:46:24.455Z,23.92
2018-05-12T15:48:51.920Z,23.94
2018-05-12T15:51:19.211Z,23.95
2018-05-12T15:53:45.198Z,23.94
2018-05-12T15:56:11.141Z,23.93
2018-05-12T15:58:37.969Z,23.93
2018-05-12T16:01:04.753Z,23.92
2018-05-12T16:03:30.877Z,23.94
2018-05-12T16:05:56.870Z,23.94
2018-05-12T16:08:23.836Z,23.93
2018-05-12T16:10:49.816Z,23.92
2018-05-12T16:13:15.804Z,23.92
2018-05-12T16:15:41.834Z,23.92
2018-05-12T16:18:07.817Z,23.90
2018-05-12T16:20:34.472Z,23.89
2018-05-12T16:23:03.426Z,23.89
2018-05-12T16:25:29.422Z,23.88
2018-05-12T16:27:55.439Z,23.88
2018-05-12T16:30:21.415Z,23.88
2018-05-12T16:32:47.726Z,23.86
2018-05-12T16:35:13.672Z,23.87
2018-05-12T16:37:40.243Z,23.86
2018-05-12T16:40:06.298Z,23.85
2018-05-12T16:42:32.303Z,23.83
2018-05-12T16:44:58.284Z,23.85
2018-05-12T16:47:24.260Z,23.84
2018-05-12T16:49:50.270Z,23.82
2018-05-12T16:52:16.257Z,23.79
2018-05-12T16:54:42.306Z,23.77
2018-05-12T16:57:08.287Z,23.76
2018-05-12T16:59:34.269Z,23.73
2018-05-12T17:02:00.412Z,23.71
2018-05-12T17:04:26.400Z,23.72
2018-05-12T17:06:52.415Z,23.70
2018-05-12T17:09:18.394Z,23.70
2018-05-12T17:11:44.352Z,23.71
2018-05-12T17:14:10.363Z,23.71
2018-05-12T17:16:36.312Z,23.70
2018-05-12T17:19:02.326Z,23.69
2018-05-12T17:21:28.311Z,23.69
2018-05-12T17:23:54.306Z,23.71
2018-05-12T17:26:20.327Z,23.75
2018-05-12T17:28:46.303Z,23.77
2018-05-12T17:31:12.253Z,23.80
2018-05-12T17:33:38.247Z,23.82
2018-05-12T17:36:04.239Z,23.83
2018-05-12T17:38:30.256Z,23.81
2018-05-12T17:40:56.243Z,23.80
2018-05-12T17:43:22.200Z,23.78
2018-05-12T17:45:48.193Z,23.77
2018-05-12T17:48:14.201Z,23.76
2018-05-12T17:50:40.187Z,23.77
2018-05-12T17:53:06.188Z,23.75
2018-05-12T17:55:32.165Z,23.73
2018-05-12T17:57:58.141Z,23.72
2018-05-12T18:00:24.119Z,23.75
2018-05-12T18:02:50.136Z,23.78
2018-05-12T18:05:16.119Z,23.78
2018-05-12T18:07:42.181Z,23.80
2018-05-12T18:10:08.131Z,23.80
2018-05-12T18:12:34.111Z,23.81
2018-05-12T18:15:00.096Z,23.82
2018-05-12T18:17:26.091Z,23.82
2018-05-12T18:19:52.111Z,23.83
2018-05-12T18:22:18.127Z,23.84
2018-05-12T18:24:44.257Z,23.85
2018-05-12T18:27:10.291Z,23.85
2018-05-12T18:29:36.305Z,23.85
2018-05-12T18:32:02.248Z,23.83
2018-05-12T18:34:28.225Z,23.83
2018-05-12T18:36:54.328Z,23.82
2018-05-12T18:39:20.338Z,23.83
2018-05-12T18:41:46.363Z,23.82
2018-05-12T18:44:12.368Z,23.83
2018-05-12T18:46:38.343Z,23.83
2018-05-12T18:49:04.323Z,23.83
2018-05-12T18:51:30.305Z,23.83
2018-05-12T18:53:56.363Z,23.83
2018-05-12T18:56:22.316Z,23.84
2018-05-12T18:58:48.334Z,23.82
2018-05-12T19:01:14.349Z,23.82
2018-05-12T19:03:40.351Z,23.82
2018-05-12T19:06:06.406Z,23.81
2018-05-12T19:08:32.365Z,23.82
2018-05-12T19:10:58.356Z,23.82
2018-05-12T19:13:24.335Z,23.82
2018-05-12T19:15:50.324Z,23.82
2018-05-12T19:18:16.320Z,23.82
2018-05-12T19:20:42.305Z,23.83
2018-05-12T19:23:08.300Z,23.83
2018-05-12T19:25:34.285Z,23.82
2018-05-12T19:28:00.273Z,23.81
2018-05-12T19:30:26.262Z,23.81
2018-05-12T19:32:52.304Z,23.81
2018-05-12T19:35:18.231Z,23.80
2018-05-12T19:37:44.222Z,23.80
2018-05-12T19:40:10.236Z,23.80
2018-05-12T19:42:36.186Z,23.79
2018-05-12T19:45:02.192Z,23.78
2018-05-12T19:47:28.166Z,23.78
2018-05-12T19:49:54.177Z,23.77
2018-05-12T19:52:20.130Z,23.78
2018-05-12T19:54:46.116Z,23.77
2018-05-12T19:57:12.104Z,23.78
2018-05-12T19:59:38.122Z,23.77
2018-05-12T20:02:04.142Z,23.76
2018-05-12T20:04:30.085Z,23.75
2018-05-12T20:06:56.072Z,23.75
2018-05-12T20:09:22.057Z,23.76
2018-05-12T20:11:48.048Z,23.76
2018-05-12T20:14:14.030Z,23.76
2018-05-12T20:16:40.022Z,23.76
2018-05-12T20:19:06.008Z,23.77
2018-05-12T20:21:32.037Z,23.76
2018-05-12T20:23:58.031Z,23.76
2018-05-12T20:26:24.044Z,23.76
2018-05-12T20:28:50.066Z,23.74
2018-05-12T20:31:16.021Z,23.72
2018-05-12T20:33:42.032Z,23.71
2018-05-12T20:36:08.045Z,23.69
2018-05-12T20:38:33.996Z,23.68
2018-05-12T20:41:00.007Z,23.67
2018-05-12T20:43:26.022Z,23.67
2018-05-12T20:45:51.968Z,23.68
2018-05-12T20:48:17.979Z,23.67
2018-05-12T20:50:43.938Z,23.65
2018-05-12T20:53:09.959Z,23.64
2018-05-12T20:55:35.924Z,23.64
2018-05-12T20:58:01.976Z,23.63
2018-05-12T21:00:27.968Z,23.62
2018-05-12T21:02:53.957Z,23.62
2018-05-12T21:05:20.051Z,23.61
2018-05-12T21:07:45.988Z,23.60
2018-05-12T21:10:11.967Z,23.60
2018-05-12T21:12:37.963Z,23.59
2018-05-12T21:15:03.991Z,23.59
2018-05-12T21:17:29.985Z,23.59
2018-05-12T21:19:56.006Z,23.57
2018-05-12T21:22:21.995Z,23.57
2018-05-12T21:24:47.966Z,23.57
2018-05-12T21:27:13.925Z,23.56
2018-05-12T21:29:39.916Z,23.56
2018-05-12T21:32:05.903Z,23.56
2018-05-12T21:34:31.886Z,23.55
2018-05-12T21:36:57.903Z,23.55
2018-05-12T21:39:23.868Z,23.54
2018-05-12T21:41:49.877Z,23.54
2018-05-12T21:44:15.884Z,23.54
2018-05-12T21:46:41.878Z,23.53
2018-05-12T21:49:07.859Z,23.52
2018-05-12T21:51:33.830Z,23.52
2018-05-12T21:53:59.814Z,23.52
2018-05-12T21:56:25.805Z,23.51
2018-05-12T21:58:51.832Z,23.51
2018-05-12T22:01:17.766Z,23.50
2018-05-12T22:03:43.747Z,23.50
2018-05-12T22:06:09.731Z,23.50
2018-05-12T22:08:35.736Z,23.50
2018-05-12T22:11:01.718Z,23.50
2018-05-12T22:13:27.702Z,23.50
2018-05-12T22:15:53.682Z,23.49
2018-05-12T22:18:19.689Z,23.48
2018-05-12T22:20:45.635Z,23.48
2018-05-12T22:23:11.652Z,23.48
2018-05-12T22:25:37.717Z,23.47
2018-05-12T22:28:03.697Z,23.48
2018-05-12T22:30:29.724Z,23.47
2018-05-12T22:32:55.646Z,23.47
2018-05-12T22:35:21.636Z,23.47
2018-05-12T22:37:47.639Z,23.46
2018-05-12T22:40:13.583Z,23.46
2018-05-12T22:42:39.570Z,23.45
2018-05-12T22:45:05.554Z,23.46
2018-05-12T22:47:31.525Z,23.45
2018-05-12T22:49:57.519Z,23.44
2018-05-12T22:52:23.532Z,23.44
2018-05-12T22:54:49.528Z,23.44
2018-05-12T22:57:15.488Z,23.44
2018-05-12T22:59:41.510Z,23.44
2018-05-12T23:02:07.470Z,23.44
2018-05-12T23:04:33.475Z,23.43
2018-05-12T23:06:59.458Z,23.43
2018-05-12T23:09:25.454Z,23.43
2018-05-12T23:11:51.473Z,23.43
2018-05-12T23:14:17.486Z,23.42
2018-05-12T23:16:43.426Z,23.42
2018-05-12T23:19:09.440Z,23.42
2018-05-12T23:21:35.422Z,23.41
2018-05-12T23:24:01.373Z,23.41
2018-05-12T23:26:27.354Z,23.40
2018-05-12T23:28:53.329Z,23.40
2018-05-12T23:31:19.352Z,23.41
2018-05-12T23:33:45.311Z,23.39
2018-05-12T23:36:11.320Z,23.40
2018-05-12T23:38:37.284Z,23.39
2018-05-12T23:41:03.290Z,23.39
2018-05-12T23:43:29.293Z,23.39
2018-05-12T23:45:55.294Z,23.39
2018-05-12T23:48:21.290Z,23.38
2018-05-12T23:50:47.289Z,23.38
2018-05-12T23:53:13.287Z,23.38
2018-05-12T23:55:39.285Z,23.37
2018-05-12T23:58:05.304Z,23.37
